createdAt,value
2022-10-31T00:01:35.816Z,101892.53
2022-10-31T00:04:05.430Z,101891.59
2022-10-31T00:06:34.145Z,101895.69
2022-10-31T00:09:05.201Z,101899.31
2022-10-31T00:11:33.975Z,101900.13
2022-10-31T00:14:02.594Z,101893.03
2022-10-31T00:16:31.300Z,101893.16
2022-10-31T00:19:02.233Z,101890.38
2022-10-31T00:21:32.309Z,101888.97
2022-10-31T00:24:01.514Z,101893.78
2022-10-31T00:26:32.161Z,101890.78
2022-10-31T00:29:01.080Z,101889.50
2022-10-31T00:31:29.948Z,101896.16
2022-10-31T00:33:58.599Z,101897.84
2022-10-31T00:36:27.102Z,101889.72
2022-10-31T00:38:55.961Z,101887.09
2022-10-31T00:41:24.406Z,101878.75
2022-10-31T00:43:52.783Z,101877.03
2022-10-31T00:46:21.186Z,101868.84
2022-10-31T00:48:49.627Z,101880.97
2022-10-31T00:51:18.267Z,101880.53
2022-10-31T00:53:46.706Z,101881.06
2022-10-31T00:56:15.202Z,101875.63
2022-10-31T00:58:43.675Z,101872.28
2022-10-31T01:01:12.152Z,101867.88
2022-10-31T01:03:40.985Z,101887.75
2022-10-31T01:06:11.242Z,101887.38
2022-10-31T01:08:40.470Z,101882.22
2022-10-31T01:11:23.579Z,101869.41
2022-10-31T01:13:54.151Z,101855.78
2022-10-31T01:16:25.141Z,101857.84
2022-10-31T01:18:54.010Z,101866.03
2022-10-31T01:23:54.917Z,101847.56
2022-10-31T01:26:26.415Z,101860.84
2022-10-31T01:29:02.960Z,101859.75
2022-10-31T01:31:34.486Z,101869.41
2022-10-31T01:34:04.115Z,101864.28
2022-10-31T01:36:36.014Z,101875.47
2022-10-31T01:39:10.456Z,101875.41
2022-10-31T01:41:44.409Z,101877.91
2022-10-31T01:44:15.783Z,101867.38
2022-10-31T01:46:48.499Z,101875.09
2022-10-31T01:49:38.623Z,101880.13
2022-10-31T01:52:28.178Z,101870.34
2022-10-31T01:54:59.828Z,101872.38
2022-10-31T01:57:29.852Z,101860.44
2022-10-31T02:00:01.815Z,101865.38
2022-10-31T02:02:32.449Z,101866.72
2022-10-31T02:05:03.596Z,101859.88
2022-10-31T02:07:40.489Z,101861.38
2022-10-31T02:10:09.308Z,101867.47
2022-10-31T02:12:39.131Z,101857.16
2022-10-31T02:15:09.242Z,101847.91
2022-10-31T02:17:37.754Z,101854.06
2022-10-31T02:20:24.677Z,101852.47
2022-10-31T02:23:20.982Z,101851.38
2022-10-31T02:26:24.750Z,101851.91
2022-10-31T02:29:24.014Z,101855.53
2022-10-31T02:32:15.151Z,101857.47
2022-10-31T02:34:59.219Z,101851.56
2022-10-31T02:37:46.435Z,101858.53
2022-10-31T02:40:23.997Z,101853.31
2022-10-31T02:43:04.899Z,101860.25
2022-10-31T02:45:58.747Z,101849.50
2022-10-31T02:48:36.113Z,101850.44
2022-10-31T02:51:06.105Z,101849.03
2022-10-31T02:53:35.879Z,101855.47
2022-10-31T02:56:13.410Z,101851.63
2022-10-31T02:59:00.841Z,101847.44
2022-10-31T03:01:50.201Z,101848.19
2022-10-31T03:04:57.367Z,101841.91
2022-10-31T03:08:01.096Z,101842.94
2022-10-31T03:10:54.347Z,101842.66
2022-10-31T03:16:09.282Z,101845.09
2022-10-31T03:18:47.690Z,101844.00
2022-10-31T03:21:22.804Z,101838.91
2022-10-31T03:23:53.110Z,101844.53
2022-10-31T03:26:24.212Z,101838.25
2022-10-31T03:29:03.017Z,101847.59
2022-10-31T03:31:38.068Z,101845.16
2022-10-31T03:34:08.635Z,101843.25
2022-10-31T03:36:39.966Z,101850.91
2022-10-31T03:39:13.731Z,101840.59
2022-10-31T03:42:00.755Z,101846.47
2022-10-31T03:44:31.217Z,101839.88
2022-10-31T03:47:00.635Z,101837.16
2022-10-31T03:49:29.954Z,101838.63
2022-10-31T03:52:06.029Z,101845.94
2022-10-31T03:54:43.356Z,101842.84
2022-10-31T03:57:17.367Z,101842.03
2022-10-31T03:59:51.896Z,101842.22
2022-10-31T04:02:26.961Z,101840.13
2022-10-31T04:04:56.647Z,101842.97
2022-10-31T04:07:31.078Z,101839.88
2022-10-31T04:10:03.053Z,101838.63
2022-10-31T04:12:33.218Z,101846.63
2022-10-31T04:15:04.017Z,101842.75
2022-10-31T04:17:35.592Z,101843.13
2022-10-31T04:20:04.439Z,101855.13
2022-10-31T04:22:32.973Z,101858.84
2022-10-31T04:25:01.363Z,101853.25
2022-10-31T04:27:29.735Z,101855.59
2022-10-31T04:29:58.193Z,101854.34
2022-10-31T04:32:27.109Z,101855.19
2022-10-31T04:34:55.468Z,101858.09
2022-10-31T04:37:23.797Z,101854.25
2022-10-31T04:39:52.125Z,101851.56
2022-10-31T04:42:20.550Z,101853.53
2022-10-31T04:44:48.902Z,101845.91
2022-10-31T04:47:17.447Z,101848.66
2022-10-31T04:49:45.810Z,101850.91
2022-10-31T04:52:15.459Z,101843.03
2022-10-31T04:54:43.819Z,101847.63
2022-10-31T04:57:12.250Z,101849.69
2022-10-31T04:59:40.668Z,101842.56
2022-10-31T05:02:09.199Z,101847.81
2022-10-31T05:04:37.595Z,101838.16
2022-10-31T05:07:06.007Z,101845.53
2022-10-31T05:09:34.389Z,101837.59
2022-10-31T05:12:02.891Z,101836.09
2022-10-31T05:14:31.395Z,101840.69
2022-10-31T05:16:59.754Z,101836.97
2022-10-31T05:19:29.108Z,101832.13
2022-10-31T05:21:57.594Z,101838.19
2022-10-31T05:24:26.986Z,101825.06
2022-10-31T05:26:55.363Z,101835.38
2022-10-31T05:29:23.759Z,101825.88
2022-10-31T05:31:52.175Z,101831.47
2022-10-31T05:34:20.551Z,101825.00
2022-10-31T05:36:49.009Z,101820.91
2022-10-31T05:39:18.383Z,101819.28
2022-10-31T05:41:46.721Z,101817.59
2022-10-31T05:44:15.093Z,101822.97
2022-10-31T05:46:43.485Z,101822.59
2022-10-31T05:49:11.887Z,101818.19
2022-10-31T05:51:40.256Z,101820.91
2022-10-31T05:54:10.845Z,101813.72
2022-10-31T05:56:43.237Z,101812.63
2022-10-31T05:59:11.644Z,101810.44
2022-10-31T06:01:40.158Z,101799.69
2022-10-31T06:04:08.679Z,101801.56
2022-10-31T06:06:37.561Z,101800.97
2022-10-31T06:09:05.920Z,101799.84
2022-10-31T06:11:34.247Z,101799.78
2022-10-31T06:14:02.954Z,101799.53
2022-10-31T06:16:31.386Z,101788.75
2022-10-31T06:18:59.806Z,101803.53
2022-10-31T06:21:28.323Z,101795.91
2022-10-31T06:23:56.843Z,101803.31
2022-10-31T06:26:25.386Z,101809.88
2022-10-31T06:28:56.114Z,101798.44
2022-10-31T06:31:26.086Z,101800.88
2022-10-31T06:33:54.641Z,101805.44
2022-10-31T06:36:23.219Z,101803.47
2022-10-31T06:38:51.622Z,101812.94
2022-10-31T06:41:21.028Z,101804.91
2022-10-31T06:43:49.415Z,101811.81
2022-10-31T06:46:17.811Z,101809.09
2022-10-31T06:48:46.241Z,101811.06
2022-10-31T06:51:14.793Z,101805.47
2022-10-31T06:53:43.205Z,101802.38
2022-10-31T06:56:11.663Z,101802.34
2022-10-31T06:58:40.074Z,101800.94
2022-10-31T07:01:08.662Z,101799.22
2022-10-31T07:03:40.316Z,101795.50
2022-10-31T07:06:09.050Z,101801.03
2022-10-31T07:08:37.464Z,101806.75
2022-10-31T07:11:06.010Z,101802.13
2022-10-31T07:13:34.458Z,101803.88
2022-10-31T07:16:05.565Z,101800.69
2022-10-31T07:18:34.964Z,101806.97
2022-10-31T07:21:03.701Z,101809.53
2022-10-31T07:23:32.478Z,101803.47
2022-10-31T07:26:00.925Z,101803.66
2022-10-31T07:28:29.522Z,101803.66
2022-10-31T07:30:58.669Z,101812.75
2022-10-31T07:33:27.612Z,101818.72
2022-10-31T07:35:56.039Z,101810.97
2022-10-31T07:38:24.599Z,101811.69
2022-10-31T07:40:53.858Z,101808.88
2022-10-31T07:43:22.376Z,101805.34
2022-10-31T07:45:52.994Z,101809.75
2022-10-31T07:48:21.955Z,101806.00
2022-10-31T07:50:50.507Z,101813.75
2022-10-31T07:53:19.009Z,101814.25
2022-10-31T07:55:47.430Z,101820.22
2022-10-31T07:58:17.719Z,101819.94
2022-10-31T08:00:48.024Z,101816.09
2022-10-31T08:03:18.758Z,101827.50
2022-10-31T08:05:47.284Z,101827.97
2022-10-31T08:08:16.485Z,101825.25
2022-10-31T08:10:45.101Z,101833.31
2022-10-31T08:13:14.800Z,101825.47
2022-10-31T08:15:45.375Z,101827.34
2022-10-31T08:18:15.475Z,101817.41
2022-10-31T08:20:44.402Z,101814.44
2022-10-31T08:23:13.713Z,101800.13
2022-10-31T08:25:43.195Z,101811.88
2022-10-31T08:28:12.831Z,101816.78
2022-10-31T08:30:42.348Z,101817.06
2022-10-31T08:33:19.021Z,101808.69
2022-10-31T08:35:48.474Z,101810.34
2022-10-31T08:38:16.991Z,101799.66
2022-10-31T08:40:50.310Z,101782.34
2022-10-31T08:43:20.094Z,101766.66
2022-10-31T08:45:50.313Z,101761.09
2022-10-31T08:48:18.793Z,101756.97
2022-10-31T08:50:47.879Z,101757.44
2022-10-31T08:53:18.936Z,101767.63
2022-10-31T08:55:49.375Z,101781.94
2022-10-31T08:58:20.006Z,101777.84
2022-10-31T09:00:50.778Z,101771.59
2022-10-31T09:03:22.474Z,101763.44
2022-10-31T09:05:51.966Z,101752.28
2022-10-31T09:08:20.539Z,101774.50
2022-10-31T09:10:49.166Z,101782.53
2022-10-31T09:13:19.881Z,101790.50
2022-10-31T09:15:49.893Z,101781.16
2022-10-31T09:18:21.363Z,101781.34
2022-10-31T09:20:50.854Z,101763.19
2022-10-31T09:23:21.523Z,101746.34
2022-10-31T09:25:52.733Z,101762.75
2022-10-31T09:28:23.461Z,101757.00
2022-10-31T09:30:53.780Z,101735.63
2022-10-31T09:33:22.588Z,101721.06
2022-10-31T09:35:52.126Z,101723.06
2022-10-31T09:38:21.947Z,101704.94
2022-10-31T09:41:02.491Z,101708.56
2022-10-31T09:43:54.199Z,101710.84
2022-10-31T09:46:41.911Z,101717.34
2022-10-31T09:49:32.307Z,101724.88
2022-10-31T09:52:11.774Z,101722.19
2022-10-31T09:54:48.446Z,101720.66
2022-10-31T09:57:23.427Z,101712.97
2022-10-31T09:59:52.652Z,101708.19
2022-10-31T10:02:40.646Z,101711.56
2022-10-31T10:05:15.675Z,101712.19
2022-10-31T10:08:08.347Z,101704.72
2022-10-31T10:11:13.004Z,101692.22
2022-10-31T10:13:58.837Z,101693.09
2022-10-31T10:16:52.716Z,101684.44
2022-10-31T10:19:34.670Z,101684.75
2022-10-31T10:22:15.020Z,101678.91
2022-10-31T10:24:50.868Z,101671.06
2022-10-31T10:27:44.044Z,101657.47
2022-10-31T10:30:12.400Z,101659.75
2022-10-31T10:32:59.962Z,101660.44
2022-10-31T10:35:35.862Z,101657.25
2022-10-31T10:38:25.665Z,101655.84
2022-10-31T10:40:54.976Z,101658.09
2022-10-31T10:43:43.936Z,101665.25
2022-10-31T10:46:38.470Z,101660.00
2022-10-31T10:49:15.543Z,101653.50
2022-10-31T10:54:48.053Z,101657.50
2022-10-31T10:57:19.581Z,101635.91
2022-10-31T10:59:48.474Z,101642.19
2022-10-31T11:02:23.549Z,101646.38
2022-10-31T11:04:55.074Z,101636.53
2022-10-31T11:07:24.029Z,101638.22
2022-10-31T11:10:04.539Z,101631.69
2022-10-31T11:12:34.765Z,101638.81
2022-10-31T11:15:17.472Z,101646.13
2022-10-31T11:17:50.685Z,101638.81
2022-10-31T11:20:19.385Z,101627.69
2022-10-31T11:22:49.304Z,101610.53
2022-10-31T11:25:20.877Z,101599.63
2022-10-31T11:28:15.424Z,101586.00
2022-10-31T11:30:49.781Z,101589.19
2022-10-31T11:33:40.526Z,101590.97
2022-10-31T11:36:31.683Z,101588.44
2022-10-31T11:39:04.625Z,101583.81
2022-10-31T11:41:36.755Z,101562.59
2022-10-31T11:44:10.927Z,101557.53
2022-10-31T11:46:42.367Z,101556.53
2022-10-31T11:49:54.055Z,101549.59
2022-10-31T11:52:29.229Z,101546.75
2022-10-31T11:55:30.015Z,101537.03
2022-10-31T11:57:58.840Z,101534.53
2022-10-31T12:00:33.478Z,101526.69
2022-10-31T12:03:23.866Z,101519.44
2022-10-31T12:06:15.616Z,101517.91
2022-10-31T12:08:44.364Z,101510.28
2022-10-31T12:11:29.541Z,101497.69
2022-10-31T12:14:44.053Z,101491.41
2022-10-31T12:17:26.072Z,101481.03
2022-10-31T12:20:24.065Z,101473.94
2022-10-31T12:23:21.836Z,101467.41
2022-10-31T12:26:08.924Z,101472.00
2022-10-31T12:29:03.658Z,101468.97
2022-10-31T12:32:10.251Z,101466.63
2022-10-31T12:34:38.815Z,101463.03
2022-10-31T12:37:58.983Z,101448.41
2022-10-31T12:41:01.020Z,101439.78
2022-10-31T12:43:47.395Z,101421.88
2022-10-31T12:46:30.596Z,101411.09
2022-10-31T12:49:13.219Z,101407.22
2022-10-31T12:51:54.271Z,101407.22
2022-10-31T12:54:39.802Z,101397.13
2022-10-31T12:57:32.439Z,101392.13
2022-10-31T13:00:05.886Z,101381.47
2022-10-31T13:02:58.924Z,101383.28
2022-10-31T13:05:35.428Z,101371.59
2022-10-31T13:08:12.097Z,101371.41
2022-10-31T13:10:49.724Z,101356.66
2022-10-31T13:13:27.311Z,101350.06
2022-10-31T13:16:03.805Z,101336.41
2022-10-31T13:18:39.657Z,101327.69
2022-10-31T13:21:21.938Z,101330.31
2022-10-31T13:23:55.141Z,101323.19
2022-10-31T13:26:42.920Z,101331.94
2022-10-31T13:29:34.590Z,101315.31
2022-10-31T13:32:07.781Z,101308.63
2022-10-31T13:34:51.574Z,101304.09
2022-10-31T13:37:39.133Z,101300.53
2022-10-31T13:40:19.699Z,101300.91
2022-10-31T13:43:07.354Z,101284.59
2022-10-31T13:45:36.007Z,101278.16
2022-10-31T13:48:07.536Z,101279.38
2022-10-31T13:50:35.932Z,101280.56
2022-10-31T13:53:12.500Z,101278.41
2022-10-31T13:55:50.297Z,101270.44
2022-10-31T13:58:30.476Z,101257.09
2022-10-31T14:01:12.120Z,101261.41
2022-10-31T14:04:06.254Z,101258.69
2022-10-31T14:06:39.598Z,101253.53
2022-10-31T14:09:38.471Z,101244.53
2022-10-31T14:12:29.509Z,101238.84
2022-10-31T14:15:05.622Z,101235.44
2022-10-31T14:18:05.471Z,101233.47
2022-10-31T14:20:45.065Z,101238.31
2022-10-31T14:23:33.542Z,101236.78
2022-10-31T14:26:29.660Z,101231.59
2022-10-31T14:29:03.081Z,101236.25
2022-10-31T14:31:40.165Z,101223.03
2022-10-31T14:34:32.906Z,101224.72
2022-10-31T14:37:38.562Z,101214.03
2022-10-31T14:40:32.730Z,101223.94
2022-10-31T14:43:29.784Z,101212.31
2022-10-31T14:46:23.246Z,101202.16
2022-10-31T14:49:05.088Z,101204.66
2022-10-31T14:51:40.662Z,101198.75
2022-10-31T14:54:16.207Z,101193.44
2022-10-31T14:56:52.098Z,101181.78
2022-10-31T14:59:25.447Z,101169.56
2022-10-31T15:02:09.751Z,101164.53
2022-10-31T15:04:39.387Z,101143.59
2022-10-31T15:07:19.141Z,101155.31
2022-10-31T15:10:01.815Z,101139.25
2022-10-31T15:12:33.056Z,101135.69
2022-10-31T15:15:17.921Z,101122.22
2022-10-31T15:17:57.279Z,101123.34
2022-10-31T15:20:28.594Z,101120.50
2022-10-31T15:22:59.792Z,101118.56
2022-10-31T15:25:34.561Z,101110.31
2022-10-31T15:28:14.806Z,101108.97
2022-10-31T15:30:56.127Z,101110.03
2022-10-31T15:33:38.662Z,101103.56
2022-10-31T15:36:23.923Z,101095.66
2022-10-31T15:38:59.647Z,101095.47
2022-10-31T15:41:37.087Z,101087.56
2022-10-31T15:44:20.655Z,101089.94
2022-10-31T15:46:59.408Z,101091.91
2022-10-31T15:49:38.279Z,101092.56
2022-10-31T15:52:41.009Z,101086.97
2022-10-31T15:55:16.393Z,101096.63
2022-10-31T15:57:48.083Z,101087.25
2022-10-31T16:00:39.117Z,101094.94
2022-10-31T16:03:07.504Z,101084.78
2022-10-31T16:05:47.879Z,101088.22
2022-10-31T16:08:31.765Z,101080.56
2022-10-31T16:11:03.962Z,101085.06
2022-10-31T16:13:38.836Z,101079.53
2022-10-31T16:19:06.499Z,101077.13
2022-10-31T16:21:38.173Z,101062.91
2022-10-31T16:24:26.158Z,101059.06
2022-10-31T16:26:59.148Z,101061.22
2022-10-31T16:29:42.717Z,101064.34
2022-10-31T16:32:27.766Z,101058.56
2022-10-31T16:35:01.468Z,101057.75
2022-10-31T16:37:30.293Z,101062.31
2022-10-31T16:39:58.783Z,101062.31
2022-10-31T16:42:27.836Z,101062.31
2022-10-31T16:44:56.288Z,101057.09
2022-10-31T16:47:28.445Z,101055.41
2022-10-31T16:50:00.808Z,101050.56
2022-10-31T16:52:38.062Z,101052.69
2022-10-31T16:55:20.450Z,101056.63
2022-10-31T16:57:55.252Z,101048.91
2022-10-31T17:00:27.512Z,101051.00
2022-10-31T17:02:57.842Z,101043.91
2022-10-31T17:05:30.592Z,101051.44
2022-10-31T17:08:00.533Z,101042.69
2022-10-31T17:10:30.759Z,101041.06
2022-10-31T17:13:03.612Z,101046.22
2022-10-31T17:15:40.166Z,101040.91
2022-10-31T17:18:12.859Z,101033.91
2022-10-31T17:20:41.938Z,101029.72
2022-10-31T17:23:12.510Z,101028.03
2022-10-31T17:25:41.331Z,101023.19
2022-10-31T17:28:14.611Z,101015.69
2022-10-31T17:30:44.049Z,101003.19
2022-10-31T17:33:15.547Z,101003.63
2022-10-31T17:35:47.498Z,100997.59
2022-10-31T17:38:16.253Z,100983.56
2022-10-31T17:40:45.106Z,100979.44
2022-10-31T17:43:13.686Z,100986.50
2022-10-31T17:45:42.518Z,100984.72
2022-10-31T17:48:12.488Z,100982.38
2022-10-31T17:50:41.016Z,100994.25
2022-10-31T17:53:09.639Z,100994.06
2022-10-31T17:55:38.134Z,101000.97
2022-10-31T17:58:06.792Z,101009.13
2022-10-31T18:00:35.261Z,101007.06
2022-10-31T18:03:04.508Z,101005.41
2022-10-31T18:05:34.330Z,101006.91
2022-10-31T18:08:04.406Z,100996.91
2022-10-31T18:10:32.889Z,100983.31
2022-10-31T18:13:01.594Z,100986.84
2022-10-31T18:15:30.557Z,100979.72
2022-10-31T18:18:00.334Z,100979.94
2022-10-31T18:20:29.338Z,100982.13
2022-10-31T18:22:57.786Z,100970.88
2022-10-31T18:25:26.245Z,100963.72
2022-10-31T18:27:54.677Z,100972.31
2022-10-31T18:30:23.075Z,100975.88
2022-10-31T18:32:51.883Z,100971.72
2022-10-31T18:35:20.482Z,100971.31
2022-10-31T18:37:48.833Z,100975.69
2022-10-31T18:40:17.312Z,100977.19
2022-10-31T18:42:45.693Z,100971.97
2022-10-31T18:45:31.256Z,100970.91
2022-10-31T18:48:02.582Z,100969.44
2022-10-31T18:50:31.224Z,100975.03
2022-10-31T18:52:59.877Z,100967.19
2022-10-31T18:55:28.578Z,100970.13
2022-10-31T18:57:57.125Z,100963.72
2022-10-31T19:00:26.471Z,100969.59
2022-10-31T19:02:56.572Z,100960.34
2022-10-31T19:05:25.098Z,100962.28
2022-10-31T19:07:53.506Z,100967.16
2022-10-31T19:10:21.921Z,100961.53
2022-10-31T19:12:50.281Z,100956.72
2022-10-31T19:15:19.641Z,100949.59
2022-10-31T19:17:48.101Z,100962.53
2022-10-31T19:20:16.618Z,100950.69
2022-10-31T19:22:44.943Z,100955.09
2022-10-31T19:25:13.308Z,100957.59
2022-10-31T19:27:41.871Z,100953.63
2022-10-31T19:30:10.957Z,100947.56
2022-10-31T19:32:40.414Z,100950.06
2022-10-31T19:35:09.275Z,100939.25
2022-10-31T19:37:39.677Z,100941.75
2022-10-31T19:40:09.352Z,100945.91
2022-10-31T19:42:38.830Z,100941.75
2022-10-31T19:45:07.598Z,100946.34
2022-10-31T19:47:35.949Z,100928.78
2022-10-31T19:50:04.988Z,100942.19
2022-10-31T19:52:35.079Z,100933.78
2022-10-31T19:55:03.815Z,100938.50
2022-10-31T19:58:00.258Z,100926.28
2022-10-31T20:00:23.630Z,100922.63
2022-10-31T20:02:51.985Z,100923.38
2022-10-31T20:05:21.390Z,100917.72
2022-10-31T20:07:49.792Z,100922.53
2022-10-31T20:10:18.167Z,100910.78
2022-10-31T20:12:46.561Z,100913.28
2022-10-31T20:15:15.083Z,100910.03
2022-10-31T20:17:43.572Z,100899.38
2022-10-31T20:20:12.347Z,100897.94
2022-10-31T20:22:40.899Z,100898.34
2022-10-31T20:25:09.323Z,100898.72
2022-10-31T20:27:37.917Z,100891.00
2022-10-31T20:30:06.986Z,100876.13
2022-10-31T20:32:36.008Z,100883.94
2022-10-31T20:35:04.707Z,100883.53
2022-10-31T20:37:33.145Z,100877.63
2022-10-31T20:40:01.517Z,100887.28
2022-10-31T20:42:29.847Z,100875.81
2022-10-31T20:44:58.220Z,100875.59
2022-10-31T20:47:26.687Z,100861.66
2022-10-31T20:49:55.185Z,100857.03
2022-10-31T20:52:23.558Z,100858.66
2022-10-31T20:54:51.957Z,100864.94
2022-10-31T20:57:20.926Z,100863.28
2022-10-31T20:59:49.978Z,100862.41
2022-10-31T21:02:18.446Z,100864.06
2022-10-31T21:04:46.936Z,100856.38
2022-10-31T21:07:15.338Z,100859.91
2022-10-31T21:09:43.735Z,100846.09
2022-10-31T21:12:12.182Z,100842.16
2022-10-31T21:14:40.525Z,100844.09
2022-10-31T21:17:08.994Z,100834.09
2022-10-31T21:19:37.546Z,100838.22
2022-10-31T21:22:06.006Z,100833.22
2022-10-31T21:24:34.814Z,100833.66
2022-10-31T21:27:07.224Z,100830.47
2022-10-31T21:29:36.993Z,100824.81
2022-10-31T21:32:05.472Z,100828.78
2022-10-31T21:34:33.851Z,100822.84
2022-10-31T21:37:02.199Z,100821.81
2022-10-31T21:39:31.205Z,100816.22
2022-10-31T21:41:59.707Z,100826.31
2022-10-31T21:44:28.045Z,100809.38
2022-10-31T21:46:56.584Z,100816.28
2022-10-31T21:49:25.023Z,100818.50
2022-10-31T21:51:53.386Z,100819.53
2022-10-31T21:54:27.646Z,100805.06
2022-10-31T21:56:57.953Z,100816.28
2022-10-31T21:59:27.032Z,100814.84
2022-10-31T22:02:00.789Z,100821.59
2022-10-31T22:04:29.645Z,100843.28
2022-10-31T22:06:58.046Z,100845.97
2022-10-31T22:09:26.577Z,100837.84
2022-10-31T22:11:54.938Z,100835.53
2022-10-31T22:14:23.328Z,100826.09
2022-10-31T22:16:51.756Z,100822.63
2022-10-31T22:19:20.109Z,100823.59
2022-10-31T22:21:48.968Z,100818.16
2022-10-31T22:24:18.487Z,100811.44
2022-10-31T22:26:46.839Z,100807.56
2022-10-31T22:29:17.454Z,100803.97
2022-10-31T22:31:50.600Z,100806.88
2022-10-31T22:34:22.056Z,100798.31
2022-10-31T22:36:50.539Z,100784.19
2022-10-31T22:39:19.019Z,100781.56
2022-10-31T22:41:47.450Z,100783.06
2022-10-31T22:44:15.772Z,100772.78
2022-10-31T22:46:44.156Z,100769.22
2022-10-31T22:49:16.944Z,100755.84
2022-10-31T22:51:45.781Z,100755.66
2022-10-31T22:54:16.307Z,100752.13
2022-10-31T22:56:45.249Z,100753.56
2022-10-31T22:59:15.063Z,100748.97
2022-10-31T23:01:47.636Z,100754.22
2022-10-31T23:04:17.033Z,100756.63
2022-10-31T23:06:45.861Z,100756.28
2022-10-31T23:09:16.346Z,100753.78
2022-10-31T23:11:44.946Z,100753.75
2022-10-31T23:14:20.621Z,100763.09
2022-10-31T23:16:52.182Z,100753.53
2022-10-31T23:19:22.757Z,100751.19
2022-10-31T23:21:57.367Z,100746.63
2022-10-31T23:24:39.139Z,100743.78
2022-10-31T23:27:24.255Z,100739.16
2022-10-31T23:29:55.295Z,100725.19
2022-10-31T23:32:25.154Z,100724.88
2022-10-31T23:34:56.087Z,100716.88
2022-10-31T23:37:27.550Z,100717.66
2022-10-31T23:39:56.294Z,100722.72
2022-10-31T23:42:25.807Z,100721.09
2022-10-31T23:44:54.721Z,100725.19
2022-10-31T23:47:23.710Z,100730.50
2022-10-31T23:49:52.195Z,100726.94
2022-10-31T23:52:20.775Z,100707.50
2022-10-31T23:54:49.166Z,100712.63
2022-10-31T23:57:17.976Z,100696.41
2022-10-31T23:59:47.851Z,100691.94
